createdAt,value
2019-03-03T00:00:50.884Z,67.70
2019-03-03T00:03:20.200Z,67.50
2019-03-03T00:08:38.198Z,67.30
2019-03-03T00:11:08.084Z,67.80
2019-03-03T00:14:11.413Z,67.50
2019-03-03T00:16:42.109Z,67.50
2019-03-03T00:19:15.426Z,68.10
2019-03-03T00:22:04.517Z,68.00
2019-03-03T00:24:36.721Z,68.00
2019-03-03T00:27:10.004Z,67.90
2019-03-03T00:29:52.099Z,68.00
2019-03-03T00:32:25.808Z,68.00
2019-03-03T00:34:59.961Z,68.40
2019-03-03T00:37:32.237Z,68.40
2019-03-03T00:40:55.393Z,68.30
2019-03-03T00:43:38.847Z,71.70
2019-03-03T00:48:59.994Z,77.80
2019-03-03T00:54:25.330Z,77.10
2019-03-03T00:59:57.976Z,78.20
2019-03-03T01:03:37.736Z,77.80
2019-03-03T01:05:25.365Z,77.10
2019-03-03T01:08:12.219Z,78.70
2019-03-03T01:10:55.104Z,79.30
2019-03-03T01:13:36.087Z,80.40
2019-03-03T01:19:08.901Z,81.30
2019-03-03T01:24:31.001Z,76.70
2019-03-03T01:27:05.518Z,76.80
2019-03-03T01:29:38.802Z,76.30
2019-03-03T01:32:10.529Z,76.70
2019-03-03T01:34:41.357Z,78.20
2019-03-03T01:37:11.185Z,80.80
2019-03-03T01:40:23.004Z,79.20
2019-03-03T01:42:58.753Z,75.80
2019-03-03T01:45:32.732Z,73.00
2019-03-03T01:48:35.799Z,71.20
2019-03-03T01:51:10.324Z,69.80
2019-03-03T01:53:41.880Z,72.80
2019-03-03T01:56:19.550Z,74.70
2019-03-03T01:58:51.847Z,72.00
2019-03-03T02:01:22.875Z,72.10
2019-03-03T02:03:59.464Z,70.30
2019-03-03T02:06:34.136Z,69.60
2019-03-03T02:09:34.269Z,68.90
2019-03-03T02:12:04.451Z,69.20
2019-03-03T02:14:34.794Z,69.20
2019-03-03T02:17:41.338Z,68.60
2019-03-03T02:20:18.977Z,68.10
2019-03-03T02:22:52.559Z,67.90
2019-03-03T02:25:25.982Z,66.20
2019-03-03T02:27:55.285Z,67.70
2019-03-03T02:30:29.573Z,68.20
2019-03-03T02:33:05.088Z,67.90
2019-03-03T02:35:42.014Z,67.60
2019-03-03T02:38:12.857Z,70.00
2019-03-03T02:40:45.362Z,73.30
2019-03-03T02:43:22.841Z,74.80
2019-03-03T02:45:53.685Z,72.80
2019-03-03T02:48:23.875Z,71.30
2019-03-03T02:50:59.097Z,70.30
2019-03-03T02:53:42.257Z,70.20
2019-03-03T02:56:15.812Z,70.40
2019-03-03T02:58:48.393Z,70.30
2019-03-03T03:01:22.880Z,71.60
2019-03-03T03:03:52.025Z,72.50
2019-03-03T03:06:31.764Z,73.00
2019-03-03T03:09:11.194Z,72.10
2019-03-03T03:12:01.080Z,70.80
2019-03-03T03:14:36.610Z,69.70
2019-03-03T03:17:14.202Z,68.90
2019-03-03T03:19:49.036Z,68.20
2019-03-03T03:22:23.088Z,67.50
2019-03-03T03:25:10.838Z,67.70
2019-03-03T03:27:48.607Z,69.40
2019-03-03T03:30:23.968Z,71.20
2019-03-03T03:32:56.794Z,71.00
2019-03-03T03:35:29.285Z,70.90
2019-03-03T03:38:03.099Z,70.60
2019-03-03T03:40:47.470Z,71.40
2019-03-03T03:43:24.551Z,71.30
2019-03-03T03:46:03.984Z,70.30
2019-03-03T03:48:50.778Z,70.50
2019-03-03T03:51:38.168Z,70.00
2019-03-03T03:54:15.204Z,69.30
2019-03-03T03:56:46.313Z,68.40
2019-03-03T03:59:37.327Z,68.10
2019-03-03T04:02:11.714Z,67.70
2019-03-03T04:04:44.115Z,69.90
2019-03-03T04:07:20.601Z,69.80
2019-03-03T04:09:57.923Z,69.10
2019-03-03T04:12:47.239Z,68.80
2019-03-03T04:15:20.953Z,68.40
2019-03-03T04:18:11.908Z,69.40
2019-03-03T04:21:01.975Z,69.80
2019-03-03T04:23:41.026Z,70.40
2019-03-03T04:26:13.487Z,69.80
2019-03-03T04:28:50.205Z,69.60
2019-03-03T04:31:37.997Z,67.40
2019-03-03T04:34:25.945Z,69.50
2019-03-03T04:37:01.215Z,69.80
2019-03-03T04:39:32.753Z,72.30
2019-03-03T04:42:06.131Z,74.40
2019-03-03T04:44:46.770Z,73.20
2019-03-03T04:47:20.776Z,75.00
2019-03-03T04:50:09.461Z,73.10
2019-03-03T04:52:48.747Z,73.50
2019-03-03T04:55:38.801Z,73.80
2019-03-03T04:58:18.363Z,72.10
2019-03-03T05:01:03.620Z,71.60
2019-03-03T05:03:52.317Z,73.50
2019-03-03T05:06:32.216Z,72.70
2019-03-03T05:09:11.230Z,76.30
2019-03-03T05:12:15.977Z,77.60
2019-03-03T05:14:48.575Z,75.00
2019-03-03T05:17:38.019Z,73.00
2019-03-03T05:20:17.171Z,73.30
2019-03-03T05:22:49.786Z,72.60
2019-03-03T05:25:25.056Z,71.40
2019-03-03T05:27:58.824Z,70.20
2019-03-03T05:30:34.322Z,70.10
2019-03-03T05:33:06.884Z,69.80
2019-03-03T05:35:41.683Z,69.70
2019-03-03T05:38:15.083Z,69.80
2019-03-03T05:40:53.237Z,70.90
2019-03-03T05:43:25.982Z,72.10
2019-03-03T05:45:57.975Z,75.10
2019-03-03T05:48:29.535Z,80.20
2019-03-03T05:51:09.659Z,78.10
2019-03-03T05:53:50.851Z,75.10
2019-03-03T05:56:24.091Z,75.80
2019-03-03T05:58:55.436Z,74.30
2019-03-03T06:01:29.722Z,73.80
2019-03-03T06:04:07.786Z,72.70
2019-03-03T06:06:39.927Z,72.30
2019-03-03T06:09:15.194Z,72.30
2019-03-03T06:11:46.070Z,72.00
2019-03-03T06:14:18.281Z,71.60
2019-03-03T06:16:51.222Z,71.40
2019-03-03T06:19:25.608Z,71.40
2019-03-03T06:21:58.869Z,71.50
2019-03-03T06:24:32.872Z,71.20
2019-03-03T06:27:05.416Z,71.10
2019-03-03T06:29:37.594Z,71.50
2019-03-03T06:32:17.651Z,71.10
2019-03-03T06:34:54.404Z,70.80
2019-03-03T06:37:34.137Z,70.60
2019-03-03T06:40:12.513Z,74.90
2019-03-03T06:42:47.801Z,75.70
2019-03-03T06:45:17.685Z,78.40
2019-03-03T06:47:46.963Z,82.90
2019-03-03T06:50:19.523Z,85.50
2019-03-03T06:52:54.996Z,86.70
2019-03-03T06:55:24.380Z,85.30
2019-03-03T06:57:55.274Z,83.00
2019-03-03T07:00:30.141Z,83.00
2019-03-03T07:03:03.525Z,84.50
2019-03-03T07:05:34.956Z,86.40
2019-03-03T07:08:06.853Z,84.30
2019-03-03T07:10:39.000Z,87.80
2019-03-03T07:13:10.312Z,90.20
2019-03-03T07:15:40.997Z,90.70
2019-03-03T07:18:11.737Z,91.10
2019-03-03T07:20:43.140Z,90.30
2019-03-03T07:23:17.570Z,89.60
2019-03-03T07:25:49.082Z,83.30
2019-03-03T07:28:22.817Z,82.70
2019-03-03T07:30:53.172Z,86.30
2019-03-03T07:33:32.702Z,82.00
2019-03-03T07:36:07.486Z,81.40
2019-03-03T07:38:41.077Z,77.70
2019-03-03T07:41:14.469Z,76.20
2019-03-03T07:43:45.080Z,75.90
2019-03-03T07:46:18.130Z,76.20
2019-03-03T07:48:46.978Z,75.30
2019-03-03T07:51:19.192Z,74.60
2019-03-03T07:53:49.961Z,78.90
2019-03-03T07:56:22.588Z,80.60
2019-03-03T07:58:56.408Z,82.10
2019-03-03T08:01:35.359Z,82.60
2019-03-03T08:04:04.239Z,88.00
2019-03-03T08:06:36.472Z,90.30
2019-03-03T08:09:10.347Z,87.90
2019-03-03T08:11:42.682Z,88.20
2019-03-03T08:14:12.746Z,90.60
2019-03-03T08:16:45.331Z,89.00
2019-03-03T08:19:17.691Z,89.90
2019-03-03T08:21:51.669Z,87.80
2019-03-03T08:24:22.777Z,89.10
2019-03-03T08:26:55.298Z,87.20
2019-03-03T08:29:25.258Z,84.20
2019-03-03T08:31:55.739Z,83.90
2019-03-03T08:34:33.223Z,87.30
2019-03-03T08:37:00.323Z,84.20
2019-03-03T08:39:35.378Z,84.70
2019-03-03T08:42:06.873Z,81.70
2019-03-03T08:44:39.339Z,78.20
2019-03-03T08:47:12.520Z,82.40
2019-03-03T08:49:46.282Z,85.00
2019-03-03T08:52:23.119Z,81.20
2019-03-03T08:55:07.754Z,80.20
2019-03-03T08:57:56.881Z,82.30
2019-03-03T09:00:36.264Z,83.60
2019-03-03T09:03:20.602Z,84.10
2019-03-03T09:05:59.407Z,79.60
2019-03-03T09:08:31.084Z,78.80
2019-03-03T09:11:08.333Z,76.90
2019-03-03T09:13:44.030Z,74.40
2019-03-03T09:16:20.177Z,75.50
2019-03-03T09:18:57.075Z,74.00
2019-03-03T09:21:32.081Z,73.30
2019-03-03T09:24:03.490Z,73.70
2019-03-03T09:26:37.954Z,72.70
2019-03-03T09:29:12.383Z,72.30
2019-03-03T09:31:50.501Z,71.90
2019-03-03T09:34:31.888Z,71.10
2019-03-03T09:37:11.269Z,72.20
2019-03-03T09:39:44.436Z,72.80
2019-03-03T09:42:29.299Z,74.20
2019-03-03T09:45:01.225Z,75.10
2019-03-03T09:47:34.841Z,77.00
2019-03-03T09:50:11.664Z,76.60
2019-03-03T09:52:50.251Z,74.70
2019-03-03T09:55:21.609Z,75.40
2019-03-03T09:57:57.280Z,71.80
2019-03-03T10:00:34.984Z,71.00
2019-03-03T10:03:14.638Z,72.50
2019-03-03T10:05:50.392Z,71.30
2019-03-03T10:08:28.382Z,74.90
2019-03-03T10:11:04.035Z,73.60
2019-03-03T10:13:38.372Z,74.60
2019-03-03T10:16:19.152Z,75.10
2019-03-03T10:19:07.518Z,74.20
2019-03-03T10:21:47.487Z,72.60
2019-03-03T10:24:52.266Z,74.00
2019-03-03T10:27:32.597Z,74.40
2019-03-03T10:30:14.611Z,74.00
2019-03-03T10:33:03.316Z,72.30
2019-03-03T10:35:56.457Z,73.10
2019-03-03T10:38:36.177Z,72.30
2019-03-03T10:41:03.171Z,71.30
2019-03-03T10:43:37.911Z,73.50
2019-03-03T10:46:20.271Z,72.50
2019-03-03T10:49:07.604Z,71.80
2019-03-03T10:51:45.973Z,69.70
2019-03-03T10:54:40.332Z,71.70
2019-03-03T10:57:30.317Z,70.80
2019-03-03T11:00:02.403Z,69.20
2019-03-03T11:02:52.987Z,68.00
2019-03-03T11:05:29.445Z,66.80
2019-03-03T11:08:20.944Z,68.00
2019-03-03T11:10:57.578Z,67.40
2019-03-03T11:13:32.310Z,66.40
2019-03-03T11:16:14.402Z,66.20
2019-03-03T11:18:55.816Z,65.80
2019-03-03T11:21:31.901Z,67.20
2019-03-03T11:24:04.091Z,69.70
2019-03-03T11:26:40.090Z,66.90
2019-03-03T11:29:16.894Z,67.40
2019-03-03T11:31:54.182Z,66.00
2019-03-03T11:34:41.400Z,66.20
2019-03-03T11:37:18.286Z,65.80
2019-03-03T11:39:56.506Z,64.40
2019-03-03T11:42:32.324Z,67.50
2019-03-03T11:45:22.628Z,74.80
2019-03-03T11:48:06.077Z,82.70
2019-03-03T11:50:51.031Z,88.00
2019-03-03T11:53:30.355Z,86.20
2019-03-03T11:56:13.932Z,86.70
2019-03-03T11:59:09.249Z,87.70
2019-03-03T12:02:00.942Z,86.50
2019-03-03T12:07:40.968Z,76.20
2019-03-03T12:10:13.606Z,73.30
2019-03-03T12:12:58.503Z,71.50
2019-03-03T12:15:40.148Z,68.80
2019-03-03T12:18:14.401Z,67.70
2019-03-03T12:21:33.399Z,67.80
2019-03-03T12:24:05.527Z,67.40
2019-03-03T12:29:33.686Z,66.20
2019-03-03T12:35:01.926Z,66.90
2019-03-03T12:38:29.967Z,67.90
2019-03-03T12:41:13.807Z,67.50
2019-03-03T12:44:38.379Z,66.40
2019-03-03T12:47:25.183Z,66.50
2019-03-03T12:49:59.820Z,66.00
2019-03-03T12:52:48.650Z,67.10
2019-03-03T12:56:05.237Z,66.40
2019-03-03T12:58:48.064Z,65.50
2019-03-03T13:04:19.405Z,64.00
2019-03-03T13:09:44.287Z,63.70
2019-03-03T13:13:07.095Z,64.10
2019-03-03T13:15:54.337Z,64.60
2019-03-03T13:21:25.796Z,65.30
2019-03-03T13:27:11.412Z,66.10
2019-03-03T13:30:36.386Z,66.80
2019-03-03T13:33:25.551Z,64.60
2019-03-03T13:42:57.027Z,67.40
2019-03-03T13:45:34.044Z,66.70
2019-03-03T13:48:53.744Z,66.50
2019-03-03T13:51:28.839Z,65.80
2019-03-03T13:54:01.261Z,66.10
2019-03-03T13:56:32.396Z,66.10
2019-03-03T13:59:01.315Z,66.20
2019-03-03T14:01:38.518Z,66.40
2019-03-03T14:04:07.575Z,66.00
2019-03-03T14:07:22.715Z,65.80
2019-03-03T14:09:56.911Z,65.70
2019-03-03T14:12:50.217Z,65.20
2019-03-03T14:15:20.365Z,65.10
2019-03-03T14:18:26.819Z,65.00
2019-03-03T14:20:56.634Z,65.00
2019-03-03T14:24:16.755Z,65.00
2019-03-03T14:26:49.985Z,64.60
2019-03-03T14:29:58.105Z,63.50
2019-03-03T14:32:28.604Z,63.70
2019-03-03T14:35:14.211Z,63.50
2019-03-03T14:37:45.201Z,63.00
2019-03-03T14:40:41.064Z,63.30
2019-03-03T14:43:09.844Z,63.60
2019-03-03T14:46:22.873Z,64.50
2019-03-03T14:48:53.398Z,63.90
2019-03-03T14:51:49.508Z,63.60
2019-03-03T14:54:18.440Z,65.00
2019-03-03T14:57:38.285Z,65.80
2019-03-03T15:00:26.460Z,66.00
2019-03-03T15:03:27.099Z,65.70
2019-03-03T15:06:11.979Z,66.40
2019-03-03T15:08:51.766Z,66.90
2019-03-03T15:11:22.595Z,66.50
2019-03-03T15:13:55.865Z,68.30
2019-03-03T15:16:24.920Z,68.20
2019-03-03T15:18:53.983Z,68.00
2019-03-03T15:21:26.126Z,67.30
2019-03-03T15:23:59.899Z,66.50
2019-03-03T15:26:59.047Z,66.00
2019-03-03T15:29:28.133Z,65.90
2019-03-03T15:32:42.388Z,66.10
2019-03-03T15:35:13.249Z,66.20
2019-03-03T15:38:36.195Z,67.10
2019-03-03T15:41:06.822Z,67.10
2019-03-03T15:44:22.160Z,67.30
2019-03-03T15:46:51.474Z,67.10
2019-03-03T15:49:52.886Z,66.70
2019-03-03T15:52:22.523Z,69.30
2019-03-03T15:55:25.767Z,69.70
2019-03-03T15:57:54.765Z,70.10
2019-03-03T16:01:15.549Z,70.10
2019-03-03T16:03:48.079Z,68.80
2019-03-03T16:07:01.801Z,67.30
2019-03-03T16:09:39.609Z,67.10
2019-03-03T16:12:59.371Z,66.30
2019-03-03T16:15:28.697Z,62.40
2019-03-03T16:18:35.321Z,65.90
2019-03-03T16:21:04.461Z,65.60
2019-03-03T16:24:20.692Z,66.40
2019-03-03T16:26:52.623Z,66.50
2019-03-03T16:29:57.932Z,66.60
2019-03-03T16:32:30.837Z,70.30
2019-03-03T16:35:27.122Z,72.60
2019-03-03T16:37:56.682Z,70.60
2019-03-03T16:41:00.779Z,70.50
2019-03-03T16:43:35.358Z,69.30
2019-03-03T16:46:08.575Z,67.80
2019-03-03T16:49:10.527Z,68.30
2019-03-03T16:51:40.223Z,68.20
2019-03-03T16:54:55.625Z,68.00
2019-03-03T16:57:27.550Z,67.30
2019-03-03T17:00:35.053Z,71.90
2019-03-03T17:03:05.768Z,70.70
2019-03-03T17:06:16.345Z,69.90
2019-03-03T17:08:45.417Z,73.90
2019-03-03T17:11:56.662Z,69.50
2019-03-03T17:14:25.858Z,69.50
2019-03-03T17:17:24.189Z,69.20
2019-03-03T17:19:53.485Z,68.50
2019-03-03T17:22:55.553Z,71.10
2019-03-03T17:25:31.917Z,72.70
2019-03-03T17:28:55.738Z,75.30
2019-03-03T17:31:31.650Z,77.80
2019-03-03T17:34:53.280Z,78.20
2019-03-03T17:37:28.648Z,76.40
2019-03-03T17:40:10.512Z,77.80
2019-03-03T17:42:39.648Z,78.50
2019-03-03T17:45:44.652Z,80.10
2019-03-03T17:48:16.533Z,78.60
2019-03-03T17:51:09.931Z,79.00
2019-03-03T17:53:39.333Z,78.90
2019-03-03T17:56:41.569Z,80.80
2019-03-03T17:59:13.349Z,81.90
2019-03-03T18:02:34.473Z,81.40
2019-03-03T18:05:10.935Z,80.80
2019-03-03T18:08:21.415Z,80.40
2019-03-03T18:10:52.215Z,79.30
2019-03-03T18:14:12.451Z,78.90
2019-03-03T18:16:49.334Z,79.90
2019-03-03T18:20:09.721Z,80.60
2019-03-03T18:22:46.404Z,80.30
2019-03-03T18:25:21.288Z,79.70
2019-03-03T18:28:36.035Z,79.40
2019-03-03T18:31:13.601Z,80.20
2019-03-03T18:34:35.755Z,81.50
2019-03-03T18:37:05.244Z,80.80
2019-03-03T18:40:02.348Z,80.90
2019-03-03T18:42:35.550Z,80.20
2019-03-03T18:45:40.311Z,80.00
2019-03-03T18:48:15.574Z,79.80
2019-03-03T18:54:04.537Z,83.00
2019-03-03T18:57:05.869Z,81.10
2019-03-03T18:59:44.185Z,80.80
2019-03-03T19:03:05.940Z,82.30
2019-03-03T19:05:35.301Z,82.30
2019-03-03T19:08:43.797Z,82.10
2019-03-03T19:11:18.940Z,83.50
2019-03-03T19:14:28.442Z,84.00
2019-03-03T19:17:06.105Z,84.30
2019-03-03T19:20:13.972Z,86.30
2019-03-03T19:22:43.637Z,87.10
2019-03-03T19:26:49.258Z,87.60
2019-03-03T19:27:59.851Z,88.30
2019-03-03T19:33:33.229Z,90.30
2019-03-03T19:36:07.725Z,90.10
2019-03-03T19:38:39.002Z,90.50
2019-03-03T19:41:11.246Z,91.00
2019-03-03T19:43:41.847Z,91.10
2019-03-03T19:46:14.791Z,91.10
2019-03-03T19:49:20.183Z,90.20
2019-03-03T19:51:50.810Z,90.50
2019-03-03T19:55:13.682Z,90.70
2019-03-03T19:57:45.484Z,91.50
2019-03-03T20:00:35.395Z,92.00
2019-03-03T20:03:01.243Z,92.30
2019-03-03T20:05:35.609Z,92.70
2019-03-03T20:08:48.563Z,93.70
2019-03-03T20:11:24.191Z,94.30
2019-03-03T20:27:43.772Z,94.60
2019-03-03T20:30:27.377Z,95.40
2019-03-03T20:33:36.205Z,94.70
2019-03-03T20:36:11.098Z,94.60
2019-03-03T20:39:29.691Z,94.10
2019-03-03T20:41:58.679Z,94.70
2019-03-03T20:47:07.222Z,97.20
2019-03-03T20:49:36.235Z,97.70
2019-03-03T20:52:12.286Z,97.40
2019-03-03T20:54:40.734Z,96.00
2019-03-03T20:57:10.202Z,95.90
2019-03-03T20:59:50.103Z,96.70
2019-03-03T21:02:23.424Z,96.60
2019-03-03T21:05:23.415Z,95.40
2019-03-03T21:07:52.313Z,95.40
2019-03-03T21:13:31.101Z,95.10
2019-03-03T21:16:00.104Z,93.80
2019-03-03T21:18:55.687Z,94.20
2019-03-03T21:21:29.082Z,95.10
2019-03-03T21:23:59.748Z,94.10
2019-03-03T21:26:36.980Z,93.90
2019-03-03T21:29:07.039Z,92.60
2019-03-03T21:31:36.103Z,91.90
2019-03-03T21:34:12.131Z,91.90
2019-03-03T21:36:43.080Z,92.20
2019-03-03T21:39:42.048Z,91.80
2019-03-03T21:42:16.881Z,93.10
2019-03-03T21:44:45.914Z,92.90
2019-03-03T21:47:53.997Z,92.40
2019-03-03T21:50:27.522Z,91.50
2019-03-03T21:52:59.044Z,88.80
2019-03-03T21:55:38.007Z,87.50
2019-03-03T21:58:08.563Z,88.70
2019-03-03T22:01:20.707Z,90.40
2019-03-03T22:03:50.311Z,91.00
2019-03-03T22:06:19.455Z,91.30
2019-03-03T22:09:24.303Z,90.50
2019-03-03T22:11:57.373Z,90.70
2019-03-03T22:17:34.193Z,90.50
2019-03-03T22:23:01.584Z,87.50
2019-03-03T22:26:10.041Z,88.70
2019-03-03T22:28:42.276Z,90.00
2019-03-03T22:31:15.476Z,90.30
2019-03-03T22:34:06.824Z,90.40
2019-03-03T22:36:38.723Z,90.30
2019-03-03T22:39:09.306Z,90.20
2019-03-03T22:41:41.515Z,90.50
2019-03-03T22:44:15.777Z,90.70
2019-03-03T22:47:14.694Z,90.30
2019-03-03T22:49:45.187Z,89.90
2019-03-03T22:52:16.090Z,87.60
2019-03-03T22:55:28.958Z,89.80
2019-03-03T22:58:02.535Z,90.40
2019-03-03T23:01:21.325Z,89.30
2019-03-03T23:04:00.963Z,90.50
2019-03-03T23:10:11.722Z,88.50
2019-03-03T23:16:30.811Z,88.50
2019-03-03T23:19:51.582Z,89.40
2019-03-03T23:21:55.158Z,87.70
2019-03-03T23:25:15.247Z,89.30
2019-03-03T23:27:44.452Z,85.40
2019-03-03T23:31:02.078Z,86.40
2019-03-03T23:33:31.208Z,87.60
2019-03-03T23:36:02.789Z,86.60
2019-03-03T23:38:38.938Z,85.90
2019-03-03T23:41:07.784Z,84.70
2019-03-03T23:44:24.421Z,85.00
2019-03-03T23:46:53.409Z,85.10
2019-03-03T23:49:22.474Z,83.90
2019-03-03T23:52:24.740Z,83.70
2019-03-03T23:54:53.813Z,83.60
2019-03-03T23:57:23.495Z,81.50
